Time;durP1;ratioP1;P1;durP2;ratioP2;P2;SDS_P1;SDS_P2;PMS_P1;PMS_P2;Temp;Humidity;BMP_temperature;BMP_pressure;BME280_temperature;BME280_humidity;BME280_pressure;Samples;Min_cycle;Max_cycle;Signal;HPM_P1;HPM_P2
2021/06/10 00:00:52;;;;;;;7.87;5.57;;;;;;;13.73;100.00;99572.70;1729637;82;21067;-64
2021/06/10 00:03:20;;;;;;;9.63;6.37;;;;;;;13.64;100.00;99575.34;1714798;82;21697;-70
2021/06/10 00:05:48;;;;;;;9.43;6.77;;;;;;;13.61;100.00;99576.58;1691387;83;21687;-69
2021/06/10 00:08:14;;;;;;;8.43;6.57;;;;;;;13.59;100.00;99573.87;1715864;83;21015;-69
2021/06/10 00:10:43;;;;;;;8.80;5.67;;;;;;;13.58;100.00;99564.42;1717405;83;21521;-71
2021/06/10 00:13:11;;;;;;;9.30;6.63;;;;;;;13.58;100.00;99564.42;1719044;83;21061;-64
2021/06/10 00:15:40;;;;;;;10.60;7.23;;;;;;;13.48;100.00;99574.60;1701873;83;21787;-69
2021/06/10 00:18:06;;;;;;;9.47;6.57;;;;;;;13.46;100.00;99574.83;1715582;83;21594;-68
2021/06/10 00:20:36;;;;;;;8.70;5.70;;;;;;;13.47;100.00;99570.39;1701458;83;21678;-68
2021/06/10 00:23:04;;;;;;;8.67;6.83;;;;;;;13.47;100.00;99566.47;1698366;83;21027;-65
2021/06/10 00:25:31;;;;;;;7.87;6.60;;;;;;;13.47;100.00;99566.47;1719207;83;21894;-68
2021/06/10 00:27:59;;;;;;;8.67;6.57;;;;;;;13.47;100.00;99575.12;1701382;83;21791;-68
2021/06/10 00:30:26;;;;;;;7.27;6.17;;;;;;;13.45;100.00;99568.48;1719975;83;20943;-69
2021/06/10 00:32:54;;;;;;;7.30;6.30;;;;;;;13.48;100.00;99573.30;1715030;83;20959;-65
2021/06/10 00:35:22;;;;;;;7.27;5.47;;;;;;;13.58;100.00;99582.24;1696129;83;21777;-65
2021/06/10 00:37:49;;;;;;;6.50;5.83;;;;;;;13.57;100.00;99581.96;1704711;83;21161;-69
2021/06/10 00:40:16;;;;;;;7.27;6.00;;;;;;;13.59;100.00;99576.49;1696820;83;21143;-69
2021/06/10 00:42:43;;;;;;;7.90;6.10;;;;;;;13.51;100.00;99571.05;1719316;81;21684;-66
2021/06/10 00:45:14;;;;;;;7.63;5.90;;;;;;;13.53;100.00;99568.22;1712512;83;20952;-65
2021/06/10 00:47:42;;;;;;;6.57;5.30;;;;;;;13.47;100.00;99566.47;1726619;82;21085;-68
2021/06/10 00:50:11;;;;;;;7.23;4.90;;;;;;;13.44;100.00;99568.20;1718562;83;21415;-68
2021/06/10 00:52:39;;;;;;;7.47;6.27;;;;;;;13.49;100.00;99574.91;1718058;83;21677;-65
2021/06/10 00:55:07;;;;;;;6.60;5.40;;;;;;;13.59;100.00;99577.80;1700219;84;21049;-67
2021/06/10 00:57:34;;;;;;;7.13;5.53;;;;;;;13.59;100.00;99577.80;1721139;83;21081;-68
2021/06/10 01:00:01;;;;;;;6.20;5.40;;;;;;;13.60;100.00;99584.66;1693162;84;21665;-68
2021/06/10 01:02:28;;;;;;;5.70;5.00;;;;;;;13.59;100.00;99577.80;1702006;83;21730;-65
2021/06/10 01:04:55;;;;;;;7.63;6.03;;;;;;;13.54;100.00;99569.30;1700750;83;21320;-67
2021/06/10 01:07:55;;;;;;;8.27;6.50;;;;;;;13.75;100.00;99571.98;1712846;83;21307;-71
2021/06/10 01:10:47;;;;;;;9.50;5.87;;;;;;;13.65;100.00;99569.59;1709922;82;21539;-64
2021/06/10 01:13:51;;;;;;;6.57;5.30;;;;;;;13.61;100.00;99569.23;1715672;82;20947;-70
2021/06/10 01:16:20;;;;;;;7.83;5.43;;;;;;;13.63;100.00;99567.97;1711431;81;21549;-70
2021/06/10 01:18:48;;;;;;;6.87;5.93;;;;;;;13.64;100.00;99572.73;1721034;83;21291;-70
2021/06/10 01:21:17;;;;;;;9.07;6.40;;;;;;;13.58;100.00;99573.59;1701608;83;21645;-68
2021/06/10 01:24:06;;;;;;;9.53;5.90;;;;;;;13.52;100.00;99562.67;1720431;82;21699;-67
2021/06/10 01:27:15;;;;;;;7.87;5.67;;;;;;;13.47;100.00;99571.19;1702384;82;20975;-68
2021/06/10 01:29:41;;;;;;;8.33;5.53;;;;;;;13.41;100.00;99569.95;1698271;83;21751;-69
2021/06/10 01:32:10;;;;;;;8.40;5.90;;;;;;;13.39;100.00;99567.56;1718022;83;21022;-68
2021/06/10 01:34:36;;;;;;;10.23;6.50;;;;;;;13.31;100.00;99562.61;1662847;83;21653;-68
2021/06/10 01:37:03;;;;;;;11.80;6.37;;;;;;;13.30;100.00;99560.52;1721180;83;20962;-69
2021/06/10 01:39:30;;;;;;;6.80;6.00;;;;;;;13.30;100.00;99560.52;1721624;83;21061;-69
2021/06/10 01:41:58;;;;;;;9.43;5.70;;;;;;;13.29;100.00;99563.33;1690882;83;21540;-69
2021/06/10 01:44:25;;;;;;;6.30;5.37;;;;;;;13.28;100.00;99564.35;1717373;83;21698;-68
2021/06/10 01:46:52;;;;;;;8.30;6.47;;;;;;;13.28;100.00;99570.38;1712554;83;21673;-70
2021/06/10 01:49:19;;;;;;;8.73;6.10;;;;;;;13.28;100.00;99571.69;1718558;81;21148;-68
2021/06/10 01:51:47;;;;;;;7.00;5.80;;;;;;;13.33;100.00;99578.89;1715100;83;21104;-68
2021/06/10 01:54:14;;;;;;;9.63;6.60;;;;;;;13.34;100.00;99574.77;1721780;83;21541;-68
2021/06/10 01:56:43;;;;;;;11.80;6.17;;;;;;;13.34;100.00;99576.58;1715658;83;22121;-65
2021/06/10 01:59:10;;;;;;;13.23;6.73;;;;;;;13.58;100.00;99576.21;1683260;84;23232;-70
2021/06/10 02:01:37;;;;;;;6.53;5.53;;;;;;;14.01;100.00;99576.06;1717640;83;21753;-69
2021/06/10 02:04:04;;;;;;;7.27;6.47;;;;;;;14.53;100.00;99566.40;1684371;83;21006;-71
2021/06/10 02:06:32;;;;;;;6.33;5.60;;;;;;;15.08;100.00;99573.98;1707477;82;21087;-71
2021/06/10 02:08:58;;;;;;;6.87;5.80;;;;;;;15.70;100.00;99578.18;1722309;83;21125;-74
2021/06/10 02:11:25;;;;;;;5.93;5.23;;;;;;;16.38;100.00;99577.05;1724402;83;21452;-70
2021/06/10 02:13:52;;;;;;;7.10;5.20;;;;;;;17.02;100.00;99577.03;1724499;83;21106;-72
2021/06/10 02:16:21;;;;;;;6.50;4.87;;;;;;;17.63;100.00;99577.55;1724229;81;20973;-71
2021/06/10 02:18:50;;;;;;;5.17;4.10;;;;;;;18.24;100.00;99564.51;1726814;82;21066;-65
2021/06/10 02:21:17;;;;;;;7.00;4.63;;;;;;;18.90;100.00;99559.48;1724457;83;21231;-70
2021/06/10 02:23:45;;;;;;;7.57;4.40;;;;;;;19.60;100.00;99554.82;1724479;81;20935;-72
2021/06/10 02:26:12;;;;;;;7.60;4.10;;;;;;;20.15;100.00;99543.61;1706748;82;21488;-73
2021/06/10 02:28:39;;;;;;;6.60;4.20;;;;;;;20.83;100.00;99530.61;1706196;82;21051;-68
2021/06/10 02:31:07;;;;;;;4.93;3.87;;;;;;;21.27;100.00;99526.77;1724168;81;21106;-73
2021/06/10 02:33:36;;;;;;;5.50;4.07;;;;;;;21.55;100.00;99521.90;1735514;82;21155;-69
2021/06/10 02:36:07;;;;;;;6.10;4.80;;;;;;;21.98;100.00;99520.33;1716779;82;21048;-71
2021/06/10 02:38:33;;;;;;;5.30;4.17;;;;;;;22.32;100.00;99523.56;1723903;83;21049;-66
2021/06/10 02:41:01;;;;;;;8.33;4.40;;;;;;;22.70;100.00;99516.56;1694492;82;22022;-71
2021/06/10 02:43:31;;;;;;;5.70;4.83;;;;;;;22.87;100.00;99512.67;1724453;83;21769;-70
2021/06/10 02:46:00;;;;;;;6.05;4.58;;;;;;;23.14;100.00;99508.14;1724459;82;21957;-68
2021/06/10 02:48:30;;;;;;;4.73;4.27;;;;;;;23.63;100.00;99505.64;1724313;83;20949;-66
2021/06/10 02:50:58;;;;;;;5.00;4.05;;;;;;;23.99;100.00;99505.95;1706672;82;22160;-69
2021/06/10 02:53:24;;;;;;;6.60;4.62;;;;;;;24.40;100.00;99506.11;1724442;83;21065;-69
2021/06/10 02:55:52;;;;;;;6.95;4.62;;;;;;;24.81;100.00;99508.02;1732494;82;21013;-72
2021/06/10 02:58:21;;;;;;;10.30;4.47;;;;;;;25.10;100.00;99506.43;1724903;81;22307;-68
2021/06/10 03:00:48;;;;;;;7.08;4.60;;;;;;;25.48;100.00;99512.30;1704318;81;21172;-68
2021/06/10 03:03:14;;;;;;;5.72;4.55;;;;;;;25.93;100.00;99515.06;1698338;83;21635;-69
2021/06/10 03:05:42;;;;;;;9.23;4.67;;;;;;;26.25;100.00;99521.23;1698241;83;21500;-69
2021/06/10 03:08:14;;;;;;;8.40;5.10;;;;;;;26.71;100.00;99520.13;1697554;83;20998;-72
2021/06/10 03:10:42;;;;;;;5.05;4.55;;;;;;;26.97;100.00;99520.75;1696940;83;21478;-68
2021/06/10 03:13:09;;;;;;;5.85;4.47;;;;;;;27.34;100.00;99518.91;1735626;81;21575;-76
2021/06/10 03:15:35;;;;;;;5.97;4.55;;;;;;;27.81;100.00;99520.48;1721339;82;21103;-75
2021/06/10 03:18:03;;;;;;;6.03;4.58;;;;;;;28.15;100.00;99518.88;1739871;81;21005;-74
2021/06/10 03:20:30;;;;;;;4.97;3.70;;;;;;;28.49;100.00;99517.22;1734347;81;21011;-66
2021/06/10 03:22:57;;;;;;;5.47;4.70;;;;;;;28.75;100.00;99516.59;1739900;81;22728;-74
2021/06/10 03:25:24;;;;;;;5.35;4.17;;;;;;;29.14;100.00;99517.38;1739350;81;21069;-76
2021/06/10 03:27:51;;;;;;;7.83;4.35;;;;;;;29.31;100.00;99521.84;1739927;81;21041;-77
2021/06/10 03:30:18;;;;;;;5.67;4.15;;;;;;;29.45;100.00;99521.59;1739790;81;21074;-69
2021/06/10 03:32:45;;;;;;;5.00;3.95;;;;;;;29.69;100.00;99516.38;1741715;81;21474;-66
2021/06/10 03:35:12;;;;;;;4.20;3.60;;;;;;;29.71;100.00;99526.25;1744466;81;22396;-77
2021/06/10 03:37:39;;;;;;;5.65;4.22;;;;;;;29.83;100.00;99522.83;1743341;81;20901;-78
2021/06/10 03:40:09;;;;;;;4.67;3.85;;;;;;;30.18;100.00;99516.59;1745012;81;21107;-74
2021/06/10 03:42:35;;;;;;;6.22;3.52;;;;;;;30.45;100.00;99520.56;1745063;81;20958;-64
2021/06/10 03:45:05;;;;;;;4.03;3.50;;;;;;;30.68;100.00;99525.52;1741158;81;20988;-67
2021/06/10 03:47:32;;;;;;;5.28;3.80;;;;;;;31.07;98.61;99524.12;1743664;81;21135;-69
2021/06/10 03:50:00;;;;;;;5.28;3.75;;;;;;;31.25;95.83;99521.41;1742805;82;21531;-73
2021/06/10 03:52:27;;;;;;;4.83;3.83;;;;;;;31.50;93.00;99517.33;1744870;81;20989;-65
2021/06/10 03:54:57;;;;;;;11.70;4.30;;;;;;;31.72;88.95;99514.12;1741868;82;21071;-70
2021/06/10 03:57:22;;;;;;;6.62;3.60;;;;;;;31.80;88.03;99517.02;1738038;81;20980;-71
2021/06/10 03:59:49;;;;;;;9.65;5.30;;;;;;;32.06;87.14;99511.98;1742180;82;21838;-72
2021/06/10 04:02:16;;;;;;;4.75;3.47;;;;;;;32.30;83.57;99515.09;1734110;81;20940;-76
2021/06/10 04:04:44;;;;;;;5.72;3.98;;;;;;;32.58;82.75;99508.86;1737942;81;21399;-65
2021/06/10 04:07:10;;;;;;;6.55;3.90;;;;;;;32.84;79.76;99506.97;1739139;81;21961;-73
2021/06/10 04:09:38;;;;;;;4.87;3.55;;;;;;;32.92;77.58;99502.75;1737354;82;20946;-74
2021/06/10 04:12:07;;;;;;;4.67;3.83;;;;;;;33.04;78.81;99507.86;1746621;81;21483;-71
2021/06/10 04:14:34;;;;;;;5.33;4.83;;;;;;;33.22;75.06;99510.36;1737095;82;20935;-69
2021/06/10 04:17:01;;;;;;;6.78;4.60;;;;;;;33.18;74.44;99515.67;1751069;80;20994;-70
2021/06/10 04:19:28;;;;;;;5.92;4.08;;;;;;;33.47;72.53;99514.97;1733233;81;21101;-71
2021/06/10 04:21:55;;;;;;;6.40;4.55;;;;;;;33.69;71.92;99514.06;1682896;84;21059;-70
2021/06/10 04:24:22;;;;;;;8.53;4.87;;;;;;;33.68;70.20;99521.39;1739140;81;21164;-71
2021/06/10 04:26:49;;;;;;;11.25;7.40;;;;;;;33.55;67.85;99518.03;1736135;81;20923;-64
2021/06/10 04:29:16;;;;;;;12.45;9.40;;;;;;;33.32;68.57;99517.91;1762961;80;20903;-69
2021/06/10 04:31:43;;;;;;;8.03;6.22;;;;;;;33.00;75.32;99519.92;1753030;80;21093;-69
2021/06/10 04:34:09;;;;;;;6.60;5.10;;;;;;;33.07;75.15;99517.39;1762316;80;20935;-70
2021/06/10 04:36:36;;;;;;;5.90;5.28;;;;;;;33.21;75.48;99514.77;1760514;80;21142;-69
2021/06/10 04:39:03;;;;;;;4.58;4.05;;;;;;;33.53;73.47;99523.02;1756561;80;20968;-65
2021/06/10 04:41:30;;;;;;;6.00;4.55;;;;;;;33.92;71.67;99518.95;1761098;80;20947;-68
2021/06/10 04:43:56;;;;;;;6.97;4.47;;;;;;;34.31;66.29;99520.24;1757755;80;21462;-68
2021/06/10 04:46:23;;;;;;;5.30;4.22;;;;;;;34.53;64.88;99526.25;1710853;83;21050;-69
2021/06/10 04:48:50;;;;;;;5.87;4.95;;;;;;;34.72;60.69;99525.97;1707239;82;21141;-68
2021/06/10 04:51:16;;;;;;;5.97;5.37;;;;;;;34.58;59.17;99530.00;1706506;83;20981;-67
2021/06/10 04:53:45;;;;;;;6.28;5.45;;;;;;;34.21;62.60;99531.66;1738814;81;21021;-70
2021/06/10 04:56:11;;;;;;;7.78;6.03;;;;;;;33.83;63.62;99534.59;1754512;80;22454;-68
2021/06/10 04:58:38;;;;;;;5.87;5.03;;;;;;;33.52;65.81;99536.30;1758390;80;20981;-69
2021/06/10 05:01:05;;;;;;;5.45;4.90;;;;;;;33.53;67.57;99531.70;1758419;80;21509;-65
2021/06/10 05:03:31;;;;;;;8.23;5.33;;;;;;;33.50;68.64;99535.11;1734710;81;20984;-68
2021/06/10 05:05:58;;;;;;;5.92;5.35;;;;;;;33.33;70.32;99532.20;1758617;80;21053;-70
2021/06/10 05:08:24;;;;;;;7.05;5.55;;;;;;;33.14;74.75;99534.30;1762473;80;21010;-70
2021/06/10 05:10:51;;;;;;;7.50;6.47;;;;;;;33.40;70.03;99532.36;1765673;80;20975;-70
2021/06/10 05:13:18;;;;;;;7.85;7.05;;;;;;;33.32;70.42;99530.06;1766034;80;21838;-71
2021/06/10 05:15:45;;;;;;;7.42;6.72;;;;;;;33.33;70.47;99528.14;1760936;80;20996;-70
2021/06/10 05:18:11;;;;;;;7.97;6.78;;;;;;;33.21;72.65;99530.98;1765728;80;21125;-69
2021/06/10 05:20:38;;;;;;;8.15;7.28;;;;;;;33.46;72.24;99535.03;1759768;80;21004;-70
2021/06/10 05:23:04;;;;;;;7.12;6.42;;;;;;;33.52;70.10;99533.59;1763840;80;20955;-71
2021/06/10 05:25:31;;;;;;;7.60;6.75;;;;;;;33.60;71.15;99533.98;1758511;80;21097;-63
2021/06/10 05:27:57;;;;;;;7.75;6.55;;;;;;;33.27;70.03;99531.70;1765597;80;21082;-64
2021/06/10 05:30:24;;;;;;;9.45;8.48;;;;;;;32.71;77.70;99530.59;1764235;80;21100;-70
2021/06/10 05:32:51;;;;;;;8.65;7.75;;;;;;;32.81;79.77;99529.28;1760877;80;20979;-68
2021/06/10 05:35:18;;;;;;;8.20;7.30;;;;;;;32.93;78.61;99531.88;1753254;80;20988;-71
2021/06/10 05:37:44;;;;;;;8.60;7.67;;;;;;;33.34;78.05;99531.09;1756995;80;21140;-64
2021/06/10 05:40:13;;;;;;;7.97;7.17;;;;;;;33.42;75.62;99539.55;1751745;80;21424;-70
2021/06/10 05:42:40;;;;;;;7.22;6.50;;;;;;;33.45;74.88;99538.81;1753287;80;21543;-70
2021/06/10 05:45:09;;;;;;;11.08;8.13;;;;;;;33.26;74.29;99541.49;1756408;80;21430;-69
2021/06/10 05:47:35;;;;;;;9.43;8.53;;;;;;;33.28;76.24;99539.23;1755435;80;20948;-69
2021/06/10 05:50:03;;;;;;;10.40;9.38;;;;;;;33.25;75.06;99543.42;1755992;80;21242;-69
2021/06/10 05:52:30;;;;;;;9.38;8.48;;;;;;;33.27;75.63;99543.86;1756022;80;22461;-70
2021/06/10 05:54:58;;;;;;;9.70;8.00;;;;;;;33.41;75.59;99537.96;1758797;80;21058;-70
2021/06/10 05:57:26;;;;;;;9.68;7.47;;;;;;;33.54;76.14;99544.07;1753417;80;21532;-70
2021/06/10 05:59:52;;;;;;;8.55;7.35;;;;;;;33.76;71.99;99541.23;1762386;80;21041;-64
2021/06/10 06:02:19;;;;;;;8.85;7.60;;;;;;;33.82;68.67;99547.33;1753987;80;21117;-71
2021/06/10 06:04:45;;;;;;;8.88;8.03;;;;;;;33.74;71.95;99542.15;1754638;81;21043;-70
2021/06/10 06:07:13;;;;;;;9.88;8.98;;;;;;;33.80;74.12;99544.22;1752938;80;21114;-71
2021/06/10 06:09:39;;;;;;;8.95;8.15;;;;;;;33.98;71.87;99545.95;1760957;80;20974;-70
2021/06/10 06:12:10;;;;;;;9.78;8.78;;;;;;;34.21;72.25;99535.70;1753884;80;21429;-65
2021/06/10 06:14:38;;;;;;;9.03;8.13;;;;;;;34.39;70.73;99537.58;1752200;80;21455;-70
2021/06/10 06:17:05;;;;;;;9.85;8.58;;;;;;;34.68;69.56;99545.44;1763870;80;20939;-71
2021/06/10 06:19:35;;;;;;;10.03;8.25;;;;;;;34.85;68.11;99540.86;1760134;80;20959;-70
2021/06/10 06:22:04;;;;;;;8.73;7.75;;;;;;;34.95;66.36;99548.38;1751657;80;20990;-70
2021/06/10 06:24:32;;;;;;;9.63;8.47;;;;;;;35.18;65.88;99542.92;1752887;81;22106;-72
2021/06/10 06:26:59;;;;;;;13.62;10.13;;;;;;;35.33;64.14;99550.67;1756033;80;22661;-69
2021/06/10 06:29:25;;;;;;;13.35;10.45;;;;;;;35.50;65.50;99544.75;1759419;80;21434;-69
2021/06/10 06:31:53;;;;;;;18.45;12.88;;;;;;;35.56;58.81;99541.91;1754747;80;21031;-62
2021/06/10 06:34:19;;;;;;;16.52;13.35;;;;;;;35.37;60.06;99545.30;1756697;80;20982;-70
2021/06/10 06:36:46;;;;;;;16.37;11.88;;;;;;;35.16;66.37;99543.08;1753469;80;21104;-69
2021/06/10 06:39:13;;;;;;;16.00;11.28;;;;;;;35.24;67.98;99540.70;1752553;80;21751;-68
2021/06/10 06:41:40;;;;;;;17.32;12.15;;;;;;;35.14;64.92;99548.09;1755347;80;20939;-71
2021/06/10 06:44:08;;;;;;;12.55;8.45;;;;;;;35.09;66.59;99549.97;1752966;81;21454;-64
2021/06/10 06:46:35;;;;;;;11.57;8.38;;;;;;;35.13;63.49;99552.73;1751478;80;21070;-71
2021/06/10 06:49:01;;;;;;;12.37;7.90;;;;;;;34.80;64.87;99548.72;1724057;81;21556;-71
2021/06/10 06:51:28;;;;;;;8.38;6.20;;;;;;;34.65;66.00;99544.80;1754120;80;21166;-71
2021/06/10 06:53:55;;;;;;;8.20;6.10;;;;;;;34.92;66.09;99549.09;1703217;82;21497;-71
2021/06/10 06:56:22;;;;;;;6.92;5.03;;;;;;;35.05;59.96;99547.01;1756616;81;21049;-65
2021/06/10 06:58:50;;;;;;;5.87;4.87;;;;;;;34.91;67.11;99542.70;1733930;81;21342;-72
2021/06/10 07:01:17;;;;;;;7.20;6.10;;;;;;;35.17;64.64;99536.53;1756026;81;21532;-71
2021/06/10 07:03:43;;;;;;;5.47;4.83;;;;;;;35.41;59.61;99536.06;1755866;81;21116;-73
2021/06/10 07:06:10;;;;;;;5.17;3.50;;;;;;;35.16;60.67;99536.30;1733194;81;21509;-68
2021/06/10 07:08:37;;;;;;;4.40;3.35;;;;;;;34.97;62.53;99537.97;1745777;81;20948;-70
2021/06/10 07:11:04;;;;;;;6.37;3.58;;;;;;;34.95;56.59;99534.83;1730354;81;21061;-73
2021/06/10 07:13:31;;;;;;;4.40;3.62;;;;;;;35.03;57.79;99529.75;1733933;81;21874;-73
2021/06/10 07:15:59;;;;;;;5.80;3.80;;;;;;;35.38;57.57;99527.31;1755103;81;21039;-74
2021/06/10 07:18:26;;;;;;;5.87;4.17;;;;;;;35.57;57.22;99525.86;1731932;81;20993;-64
2021/06/10 07:20:54;;;;;;;5.50;4.08;;;;;;;35.37;59.13;99531.17;1743637;81;21152;-75
2021/06/10 07:23:21;;;;;;;5.72;4.45;;;;;;;35.12;60.87;99531.41;1704860;82;21008;-73
2021/06/10 07:25:48;;;;;;;6.25;4.17;;;;;;;34.80;65.65;99538.47;1748135;81;20978;-72
2021/06/10 07:28:15;;;;;;;5.05;3.62;;;;;;;34.53;68.93;99532.25;1695843;82;21155;-74
2021/06/10 07:30:41;;;;;;;5.58;3.90;;;;;;;34.53;67.03;99537.08;1735445;81;20951;-70
2021/06/10 07:33:08;;;;;;;4.92;3.30;;;;;;;34.42;67.39;99536.09;1700115;82;21025;-74
2021/06/10 07:35:35;;;;;;;6.17;3.50;;;;;;;34.20;65.17;99530.09;1735134;81;21446;-72
2021/06/10 07:38:04;;;;;;;4.08;3.15;;;;;;;34.06;67.70;99536.83;1705330;82;21474;-74
2021/06/10 07:40:31;;;;;;;3.33;2.77;;;;;;;34.02;66.54;99534.63;1708604;82;21173;-68
2021/06/10 07:42:58;;;;;;;3.98;2.58;;;;;;;33.97;66.58;99528.69;1756035;81;21641;-70
2021/06/10 07:45:27;;;;;;;3.98;2.20;;;;;;;34.38;58.84;99529.84;1712293;82;21019;-71
2021/06/10 07:47:53;;;;;;;3.80;2.45;;;;;;;34.47;59.43;99533.07;1757149;80;21109;-70
2021/06/10 07:50:21;;;;;;;3.35;2.10;;;;;;;34.66;56.47;99530.89;1732321;81;21026;-64
2021/06/10 07:52:47;;;;;;;4.65;2.20;;;;;;;34.95;52.31;99526.70;1752531;80;21125;-69
2021/06/10 07:55:14;;;;;;;3.20;2.70;;;;;;;35.37;50.58;99523.63;1754082;80;21312;-69
2021/06/10 07:57:41;;;;;;;3.25;2.33;;;;;;;35.59;49.49;99516.00;1759022;80;21590;-69
2021/06/10 08:00:09;;;;;;;2.70;2.20;;;;;;;36.03;47.41;99517.48;1754342;80;21055;-65
2021/06/10 08:02:45;;;;;;;3.22;1.85;;;;;;;36.23;42.68;99514.56;1756275;80;22018;-68
2021/06/10 08:05:12;;;;;;;3.60;2.12;;;;;;;36.16;43.54;99506.35;1753888;80;21114;-70
2021/06/10 08:07:42;;;;;;;2.92;1.98;;;;;;;36.14;47.20;99511.36;1753848;80;20971;-71
2021/06/10 08:10:11;;;;;;;3.08;2.17;;;;;;;36.46;41.57;99508.94;1754196;80;21079;-66
2021/06/10 08:12:40;;;;;;;8.88;2.17;;;;;;;36.63;40.22;99504.23;1751631;80;21102;-70
2021/06/10 08:15:07;;;;;;;2.65;1.92;;;;;;;36.86;41.05;99509.45;1751749;81;21041;-74
2021/06/10 08:17:35;;;;;;;2.10;1.82;;;;;;;36.99;38.17;99512.66;1753629;80;21132;-74
2021/06/10 08:20:13;;;;;;;3.10;2.05;;;;;;;36.77;42.61;99511.13;1752035;81;21054;-73
2021/06/10 08:22:40;;;;;;;3.85;2.20;;;;;;;36.94;40.12;99518.43;1753444;80;21026;-65
2021/06/10 08:25:09;;;;;;;3.37;1.90;;;;;;;37.31;39.09;99522.33;1751719;81;22105;-75
2021/06/10 08:27:36;;;;;;;3.00;2.30;;;;;;;37.29;38.70;99519.22;1753980;80;21041;-73
2021/06/10 08:30:08;;;;;;;2.50;1.92;;;;;;;37.30;38.03;99518.05;1750487;81;21443;-72
2021/06/10 08:32:35;;;;;;;2.75;1.80;;;;;;;37.46;37.73;99517.17;1753171;81;20986;-75
2021/06/10 08:35:01;;;;;;;2.60;2.10;;;;;;;37.66;35.66;99511.44;1727634;81;21533;-73
2021/06/10 08:37:28;;;;;;;3.20;2.10;;;;;;;37.60;35.47;99512.38;1732563;81;20984;-75
2021/06/10 08:39:55;;;;;;;3.50;2.17;;;;;;;37.18;35.20;99507.52;1730890;81;21120;-76
2021/06/10 08:42:23;;;;;;;3.22;2.10;;;;;;;36.74;35.89;99497.52;1728411;81;21154;-65
2021/06/10 08:44:50;;;;;;;4.28;2.20;;;;;;;36.19;37.96;99492.81;1733274;81;21345;-67
2021/06/10 08:47:21;;;;;;;2.80;1.92;;;;;;;35.87;41.45;99503.31;1758775;80;21270;-74
2021/06/10 08:49:49;;;;;;;3.40;2.05;;;;;;;35.71;42.99;99501.41;1755034;80;21530;-73
2021/06/10 08:52:15;;;;;;;4.17;2.10;;;;;;;35.55;41.77;99505.11;1729210;81;21105;-65
2021/06/10 08:54:42;;;;;;;3.55;2.20;;;;;;;35.37;40.75;99501.37;1729706;81;21175;-64
2021/06/10 08:57:09;;;;;;;4.33;2.45;;;;;;;34.90;42.25;99508.07;1696936;82;20945;-70
2021/06/10 08:59:35;;;;;;;2.98;2.65;;;;;;;34.45;43.29;99508.89;1755389;81;21701;-69
2021/06/10 09:02:02;;;;;;;3.75;2.98;;;;;;;34.01;42.02;99504.64;1750397;81;20987;-72
2021/06/10 09:04:29;;;;;;;4.60;2.77;;;;;;;33.70;44.14;99492.64;1705361;82;21000;-73
2021/06/10 09:06:59;;;;;;;6.15;2.90;;;;;;;33.35;48.14;99505.63;1754433;81;22224;-74
2021/06/10 09:09:36;;;;;;;4.00;2.60;;;;;;;33.16;55.91;99504.46;1715961;82;21105;-69
2021/06/10 09:12:07;;;;;;;3.87;3.15;;;;;;;32.75;56.53;99498.29;1726760;81;21590;-64
2021/06/10 09:14:57;;;;;;;4.75;3.20;;;;;;;32.17;63.51;99499.56;1739162;81;20970;-62
2021/06/10 09:17:36;;;;;;;4.90;3.20;;;;;;;31.58;66.72;99494.85;1736537;81;21017;-72
2021/06/10 09:20:22;;;;;;;4.17;3.33;;;;;;;31.00;73.56;99501.02;1743385;81;21155;-66
2021/06/10 09:22:55;;;;;;;3.60;3.00;;;;;;;31.07;77.97;99506.63;1738338;81;20987;-69
2021/06/10 09:25:24;;;;;;;4.05;3.12;;;;;;;31.23;78.30;99502.10;1705859;81;21488;-70
2021/06/10 09:27:59;;;;;;;4.10;2.80;;;;;;;31.49;66.64;99496.91;1730228;81;20974;-62
2021/06/10 09:30:45;;;;;;;4.62;2.75;;;;;;;31.53;61.12;99492.41;1749986;81;20899;-69
2021/06/10 09:33:16;;;;;;;4.05;2.87;;;;;;;31.45;65.44;99491.42;1746202;80;21122;-66
2021/06/10 09:35:43;;;;;;;3.67;2.85;;;;;;;31.31;62.07;99495.61;1737048;81;21034;-66
2021/06/10 09:38:19;;;;;;;4.40;3.63;;;;;;;31.19;61.93;99496.39;1756010;81;21023;-68
2021/06/10 09:40:45;;;;;;;3.83;2.98;;;;;;;30.99;69.50;99500.80;1751212;81;20931;-69
2021/06/10 09:43:12;;;;;;;3.42;2.75;;;;;;;31.19;75.46;99501.21;1748053;81;21002;-63
2021/06/10 09:45:44;;;;;;;3.75;2.77;;;;;;;31.13;77.57;99497.17;1705138;82;21238;-72
2021/06/10 09:48:11;;;;;;;3.70;2.83;;;;;;;31.15;78.09;99500.33;1757246;81;21562;-71
2021/06/10 09:50:43;;;;;;;3.60;2.80;;;;;;;31.19;80.92;99498.52;1753936;80;21522;-71
2021/06/10 09:53:22;;;;;;;3.42;2.85;;;;;;;31.16;86.55;99501.11;1732864;81;20993;-71
2021/06/10 09:55:59;;;;;;;5.58;2.85;;;;;;;31.24;86.63;99492.89;1733467;81;20917;-73
2021/06/10 09:58:38;;;;;;;3.83;3.30;;;;;;;31.10;86.68;99493.03;1734506;81;21149;-72
2021/06/10 10:01:14;;;;;;;4.53;3.10;;;;;;;30.73;86.15;99480.94;1735361;81;21108;-72
2021/06/10 10:03:44;;;;;;;9.60;8.70;;;;;;;30.73;86.15;99480.94;1736713;81;21053;-69
2021/06/10 10:06:24;;;;;;;14.13;12.75;;;;;;;30.43;92.29;99472.29;1724446;81;20918;-72
2021/06/10 10:09:01;;;;;;;4.75;2.87;;;;;;;30.32;94.92;99469.24;1726781;81;21117;-73
2021/06/10 10:11:29;;;;;;;3.12;2.42;;;;;;;30.15;94.51;99472.86;1723200;83;21149;-72
2021/06/10 10:13:58;;;;;;;4.03;2.10;;;;;;;29.93;94.65;99473.25;1722567;83;20930;-67
2021/06/10 10:16:31;;;;;;;4.03;2.25;;;;;;;29.59;97.07;99479.19;1736957;81;21658;-74
2021/06/10 10:19:02;;;;;;;6.05;4.70;;;;;;;29.43;98.90;99468.77;1724785;81;21041;-74
2021/06/10 10:21:29;;;;;;;7.95;6.83;;;;;;;29.14;99.93;99466.95;1723291;83;21050;-71
2021/06/10 10:24:03;;;;;;;3.42;2.62;;;;;;;28.88;100.00;99471.09;1722308;83;21230;-64
2021/06/10 10:26:31;;;;;;;3.45;2.10;;;;;;;28.66;100.00;99467.56;1709150;81;22037;-71
2021/06/10 10:28:59;;;;;;;3.92;2.47;;;;;;;28.45;100.00;99474.20;1713854;82;21081;-71
2021/06/10 10:31:27;;;;;;;4.12;1.92;;;;;;;28.22;100.00;99477.61;1710820;82;21515;-74
2021/06/10 10:33:54;;;;;;;8.73;7.12;;;;;;;28.01;100.00;99482.09;1766006;80;20941;-64
2021/06/10 10:36:31;;;;;;;3.92;2.40;;;;;;;27.80;100.00;99486.75;1761074;80;21005;-71
2021/06/10 10:39:04;;;;;;;3.00;2.10;;;;;;;27.65;100.00;99485.33;1764720;80;20954;-72
2021/06/10 10:41:31;;;;;;;3.22;2.25;;;;;;;27.54;100.00;99485.93;1760074;80;21519;-65
2021/06/10 10:44:18;;;;;;;3.70;2.22;;;;;;;27.45;100.00;99483.26;1762664;80;21088;-71
2021/06/10 10:46:40;;;;;;;3.47;2.22;;;;;;;27.48;100.00;99475.95;1736326;81;21619;-74
2021/06/10 10:49:21;;;;;;;3.12;2.25;;;;;;;27.54;100.00;99475.22;1723758;83;21097;-75
2021/06/10 10:51:47;;;;;;;2.52;2.00;;;;;;;27.40;100.00;99484.77;1734171;81;21051;-77
2021/06/10 10:54:34;;;;;;;3.17;2.45;;;;;;;27.38;100.00;99485.61;1710465;82;20995;-75
2021/06/10 10:57:01;;;;;;;3.30;2.40;;;;;;;27.46;100.00;99480.03;1721217;81;22179;-73
2021/06/10 10:59:41;;;;;;;4.50;2.43;;;;;;;27.58;100.00;99476.98;1727490;81;21100;-75
2021/06/10 11:02:13;;;;;;;4.10;2.60;;;;;;;27.70;100.00;99477.69;1724499;83;21152;-73
2021/06/10 11:04:55;;;;;;;3.40;2.15;;;;;;;27.87;100.00;99479.58;1721808;83;20906;-70
2021/06/10 11:07:39;;;;;;;4.37;2.12;;;;;;;28.07;100.00;99476.78;1732778;81;21910;-70
2021/06/10 11:10:17;;;;;;;3.40;2.25;;;;;;;28.41;100.00;99477.27;1712165;81;21028;-71
2021/06/10 11:12:54;;;;;;;3.10;2.08;;;;;;;28.86;100.00;99473.52;1697557;83;21026;-71
2021/06/10 11:15:26;;;;;;;2.95;1.98;;;;;;;29.30;100.00;99472.73;1726296;81;21492;-75
2021/06/10 11:17:58;;;;;;;3.00;1.95;;;;;;;29.76;100.00;99475.56;1731916;81;21554;-63
2021/06/10 11:20:40;;;;;;;3.67;2.17;;;;;;;30.25;100.00;99479.20;1700120;83;20944;-69
2021/06/10 11:23:26;;;;;;;2.70;2.10;;;;;;;30.82;100.00;99475.46;1694451;83;20927;-74
2021/06/10 11:25:52;;;;;;;3.08;2.40;;;;;;;31.45;100.00;99466.41;1696827;83;21536;-69
2021/06/10 11:28:20;;;;;;;2.58;2.15;;;;;;;32.04;96.39;99463.00;1728138;81;22217;-73
2021/06/10 11:30:50;;;;;;;2.50;1.98;;;;;;;32.53;94.30;99460.00;1720551;81;21511;-73
2021/06/10 11:33:22;;;;;;;5.25;2.70;;;;;;;32.90;94.08;99458.34;1721821;83;22080;-72
2021/06/10 11:36:03;;;;;;;3.65;2.50;;;;;;;33.20;89.79;99464.03;1720363;83;20926;-75
2021/06/10 11:38:40;;;;;;;2.98;2.30;;;;;;;33.38;83.48;99456.30;1721643;81;21486;-73